sensor_id;sensor_type;location;lat;lon;timestamp;temperature;humidity
22795;DHT22;11564;50.920;11.612;2022-11-15T00:00:53;5.50;99.90
22795;DHT22;11564;50.920;11.612;2022-11-15T00:03:24;5.50;99.90
22795;DHT22;11564;50.920;11.612;2022-11-15T00:05:51;5.40;99.90
22795;DHT22;11564;50.920;11.612;2022-11-15T00:08:17;5.40;99.90
22795;DHT22;11564;50.920;11.612;2022-11-15T00:10:42;5.60;99.90
22795;DHT22;11564;50.920;11.612;2022-11-15T00:13:10;5.90;99.90
22795;DHT22;11564;50.920;11.612;2022-11-15T00:15:37;6.20;99.90
22795;DHT22;11564;50.920;11.612;2022-11-15T00:18:04;6.30;99.90
22795;DHT22;11564;50.920;11.612;2022-11-15T00:20:31;6.30;99.90
22795;DHT22;11564;50.920;11.612;2022-11-15T00:22:56;6.20;99.90
22795;DHT22;11564;50.920;11.612;2022-11-15T00:25:22;6.30;99.90
22795;DHT22;11564;50.920;11.612;2022-11-15T00:27:48;6.40;99.90
22795;DHT22;11564;50.920;11.612;2022-11-15T00:30:13;6.70;99.90
22795;DHT22;11564;50.920;11.612;2022-11-15T00:32:39;6.60;99.90
22795;DHT22;11564;50.920;11.612;2022-11-15T00:35:05;6.80;99.90
22795;DHT22;11564;50.920;11.612;2022-11-15T00:37:30;6.80;99.90
22795;DHT22;11564;50.920;11.612;2022-11-15T00:39:56;6.90;99.90
22795;DHT22;11564;50.920;11.612;2022-11-15T00:42:22;7.20;99.90
22795;DHT22;11564;50.920;11.612;2022-11-15T00:44:47;7.50;99.90
22795;DHT22;11564;50.920;11.612;2022-11-15T00:47:13;7.70;99.90
22795;DHT22;11564;50.920;11.612;2022-11-15T00:49:38;7.80;99.90
22795;DHT22;11564;50.920;11.612;2022-11-15T00:52:04;7.80;99.90
22795;DHT22;11564;50.920;11.612;2022-11-15T00:54:30;7.70;99.90
22795;DHT22;11564;50.920;11.612;2022-11-15T00:56:55;7.60;99.90
22795;DHT22;11564;50.920;11.612;2022-11-15T00:59:21;7.60;99.90
22795;DHT22;11564;50.920;11.612;2022-11-15T01:01:46;7.60;99.90
22795;DHT22;11564;50.920;11.612;2022-11-15T01:04:12;7.60;99.90
22795;DHT22;11564;50.920;11.612;2022-11-15T01:06:38;7.60;99.90
22795;DHT22;11564;50.920;11.612;2022-11-15T01:09:03;7.50;99.90
22795;DHT22;11564;50.920;11.612;2022-11-15T01:11:29;7.40;99.90
22795;DHT22;11564;50.920;11.612;2022-11-15T01:13:55;7.40;99.90
22795;DHT22;11564;50.920;11.612;2022-11-15T01:16:20;7.40;99.90
22795;DHT22;11564;50.920;11.612;2022-11-15T01:18:46;7.20;99.90
22795;DHT22;11564;50.920;11.612;2022-11-15T01:21:14;7.20;99.90
22795;DHT22;11564;50.920;11.612;2022-11-15T01:23:41;7.30;99.90
22795;DHT22;11564;50.920;11.612;2022-11-15T01:26:10;7.20;99.90
22795;DHT22;11564;50.920;11.612;2022-11-15T01:28:38;7.10;99.90
22795;DHT22;11564;50.920;11.612;2022-11-15T01:31:06;6.90;99.90
22795;DHT22;11564;50.920;11.612;2022-11-15T01:33:34;6.80;99.90
22795;DHT22;11564;50.920;11.612;2022-11-15T01:36:21;6.80;99.90
22795;DHT22;11564;50.920;11.612;2022-11-15T01:38:57;6.70;99.90
22795;DHT22;11564;50.920;11.612;2022-11-15T01:41:31;6.60;99.90
22795;DHT22;11564;50.920;11.612;2022-11-15T01:47:13;6.40;99.90
22795;DHT22;11564;50.920;11.612;2022-11-15T01:50:12;6.30;99.90
22795;DHT22;11564;50.920;11.612;2022-11-15T01:52:36;6.30;99.90
22795;DHT22;11564;50.920;11.612;2022-11-15T01:55:25;6.50;99.90
22795;DHT22;11564;50.920;11.612;2022-11-15T01:57:55;7.00;99.90
22795;DHT22;11564;50.920;11.612;2022-11-15T02:00:22;7.00;99.90
22795;DHT22;11564;50.920;11.612;2022-11-15T02:02:47;7.40;99.90
22795;DHT22;11564;50.920;11.612;2022-11-15T02:05:13;7.40;99.90
22795;DHT22;11564;50.920;11.612;2022-11-15T02:07:39;7.50;99.90
22795;DHT22;11564;50.920;11.612;2022-11-15T02:10:12;7.40;99.90
22795;DHT22;11564;50.920;11.612;2022-11-15T02:12:38;7.20;99.90
22795;DHT22;11564;50.920;11.612;2022-11-15T02:15:05;7.10;99.90
22795;DHT22;11564;50.920;11.612;2022-11-15T02:29:01;6.60;99.90
22795;DHT22;11564;50.920;11.612;2022-11-15T02:31:41;6.60;99.90
22795;DHT22;11564;50.920;11.612;2022-11-15T02:36:50;6.40;99.90
22795;DHT22;11564;50.920;11.612;2022-11-15T02:39:28;6.30;99.90
22795;DHT22;11564;50.920;11.612;2022-11-15T02:42:03;6.30;99.90
22795;DHT22;11564;50.920;11.612;2022-11-15T02:44:37;6.40;99.90
22795;DHT22;11564;50.920;11.612;2022-11-15T02:47:06;6.50;99.90
22795;DHT22;11564;50.920;11.612;2022-11-15T02:49:48;6.40;99.90
22795;DHT22;11564;50.920;11.612;2022-11-15T02:52:21;6.30;99.90
22795;DHT22;11564;50.920;11.612;2022-11-15T02:54:58;6.20;99.90
22795;DHT22;11564;50.920;11.612;2022-11-15T03:00:15;6.20;99.90
22795;DHT22;11564;50.920;11.612;2022-11-15T03:03:08;6.30;99.90
22795;DHT22;11564;50.920;11.612;2022-11-15T03:05:53;6.20;99.90
22795;DHT22;11564;50.920;11.612;2022-11-15T03:11:49;6.10;99.90
22795;DHT22;11564;50.920;11.612;2022-11-15T03:19:34;5.50;99.90
22795;DHT22;11564;50.920;11.612;2022-11-15T03:22:04;5.30;99.90
22795;DHT22;11564;50.920;11.612;2022-11-15T03:24:34;5.20;99.90
22795;DHT22;11564;50.920;11.612;2022-11-15T03:27:00;5.10;99.90
22795;DHT22;11564;50.920;11.612;2022-11-15T03:29:31;5.00;99.90
22795;DHT22;11564;50.920;11.612;2022-11-15T03:32:01;4.90;99.90
22795;DHT22;11564;50.920;11.612;2022-11-15T03:34:33;4.90;99.90
22795;DHT22;11564;50.920;11.612;2022-11-15T03:37:01;4.80;99.90
22795;DHT22;11564;50.920;11.612;2022-11-15T03:39:27;4.70;99.90
22795;DHT22;11564;50.920;11.612;2022-11-15T03:42:00;4.70;99.90
22795;DHT22;11564;50.920;11.612;2022-11-15T03:47:17;4.80;99.90
22795;DHT22;11564;50.920;11.612;2022-11-15T03:49:53;4.90;99.90
22795;DHT22;11564;50.920;11.612;2022-11-15T03:52:21;5.00;99.90
22795;DHT22;11564;50.920;11.612;2022-11-15T03:54:55;5.50;99.90
22795;DHT22;11564;50.920;11.612;2022-11-15T03:57:22;6.00;99.90
22795;DHT22;11564;50.920;11.612;2022-11-15T03:59:47;6.20;99.90
22795;DHT22;11564;50.920;11.612;2022-11-15T04:02:13;6.40;99.90
22795;DHT22;11564;50.920;11.612;2022-11-15T04:04:39;6.60;99.90
22795;DHT22;11564;50.920;11.612;2022-11-15T04:07:04;7.00;99.90
22795;DHT22;11564;50.920;11.612;2022-11-15T04:09:30;7.40;99.90
22795;DHT22;11564;50.920;11.612;2022-11-15T04:11:56;7.40;99.90
22795;DHT22;11564;50.920;11.612;2022-11-15T04:14:21;7.40;99.90
22795;DHT22;11564;50.920;11.612;2022-11-15T04:16:47;7.50;99.90
22795;DHT22;11564;50.920;11.612;2022-11-15T04:19:13;7.60;99.90
22795;DHT22;11564;50.920;11.612;2022-11-15T04:21:57;7.70;99.90
22795;DHT22;11564;50.920;11.612;2022-11-15T04:24:41;7.80;99.90
22795;DHT22;11564;50.920;11.612;2022-11-15T04:27:06;7.70;99.90
22795;DHT22;11564;50.920;11.612;2022-11-15T04:29:32;7.80;99.90
22795;DHT22;11564;50.920;11.612;2022-11-15T04:32:05;7.70;99.90
22795;DHT22;11564;50.920;11.612;2022-11-15T04:34:31;7.60;99.90
22795;DHT22;11564;50.920;11.612;2022-11-15T04:36:57;7.60;99.90
22795;DHT22;11564;50.920;11.612;2022-11-15T04:39:42;7.20;99.90
22795;DHT22;11564;50.920;11.612;2022-11-15T04:42:08;6.10;99.90
22795;DHT22;11564;50.920;11.612;2022-11-15T04:44:33;5.60;99.90
22795;DHT22;11564;50.920;11.612;2022-11-15T04:46:59;5.60;99.90
22795;DHT22;11564;50.920;11.612;2022-11-15T04:49:24;5.50;99.90
22795;DHT22;11564;50.920;11.612;2022-11-15T04:51:50;5.40;99.90
22795;DHT22;11564;50.920;11.612;2022-11-15T04:54:16;5.40;99.90
22795;DHT22;11564;50.920;11.612;2022-11-15T04:56:42;5.50;99.90
22795;DHT22;11564;50.920;11.612;2022-11-15T04:59:07;5.50;99.90
22795;DHT22;11564;50.920;11.612;2022-11-15T05:01:33;5.50;99.90
22795;DHT22;11564;50.920;11.612;2022-11-15T05:03:59;5.50;99.90
22795;DHT22;11564;50.920;11.612;2022-11-15T05:06:43;5.30;99.90
22795;DHT22;11564;50.920;11.612;2022-11-15T05:09:09;5.20;99.90
22795;DHT22;11564;50.920;11.612;2022-11-15T05:11:34;5.10;99.90
22795;DHT22;11564;50.920;11.612;2022-11-15T05:14:00;5.10;99.90
22795;DHT22;11564;50.920;11.612;2022-11-15T05:16:26;5.10;99.90
22795;DHT22;11564;50.920;11.612;2022-11-15T05:18:53;5.00;99.90
22795;DHT22;11564;50.920;11.612;2022-11-15T05:21:19;4.30;99.90
22795;DHT22;11564;50.920;11.612;2022-11-15T05:23:45;4.10;99.90
22795;DHT22;11564;50.920;11.612;2022-11-15T05:26:10;4.10;99.90
22795;DHT22;11564;50.920;11.612;2022-11-15T05:28:36;4.10;99.90
22795;DHT22;11564;50.920;11.612;2022-11-15T05:31:04;4.30;99.90
22795;DHT22;11564;50.920;11.612;2022-11-15T05:33:31;4.60;99.90
22795;DHT22;11564;50.920;11.612;2022-11-15T05:36:07;4.80;99.90
22795;DHT22;11564;50.920;11.612;2022-11-15T05:38:35;4.90;99.90
22795;DHT22;11564;50.920;11.612;2022-11-15T05:41:02;5.20;99.90
22795;DHT22;11564;50.920;11.612;2022-11-15T05:43:29;5.40;99.90
22795;DHT22;11564;50.920;11.612;2022-11-15T05:45:57;5.70;99.90
22795;DHT22;11564;50.920;11.612;2022-11-15T05:48:23;5.90;99.90
22795;DHT22;11564;50.920;11.612;2022-11-15T05:50:48;6.10;99.90
22795;DHT22;11564;50.920;11.612;2022-11-15T05:53:16;6.20;99.90
22795;DHT22;11564;50.920;11.612;2022-11-15T05:55:42;6.20;99.90
22795;DHT22;11564;50.920;11.612;2022-11-15T05:58:08;6.40;99.90
22795;DHT22;11564;50.920;11.612;2022-11-15T06:00:34;6.40;99.90
22795;DHT22;11564;50.920;11.612;2022-11-15T06:03:00;6.30;99.90
22795;DHT22;11564;50.920;11.612;2022-11-15T06:05:25;6.20;99.90
22795;DHT22;11564;50.920;11.612;2022-11-15T06:07:51;6.20;99.90
22795;DHT22;11564;50.920;11.612;2022-11-15T06:10:17;6.10;99.90
22795;DHT22;11564;50.920;11.612;2022-11-15T06:12:42;6.00;99.90
22795;DHT22;11564;50.920;11.612;2022-11-15T06:15:08;6.00;99.90
22795;DHT22;11564;50.920;11.612;2022-11-15T06:17:34;6.10;99.90
22795;DHT22;11564;50.920;11.612;2022-11-15T06:20:00;6.10;99.90
22795;DHT22;11564;50.920;11.612;2022-11-15T06:22:25;6.00;99.90
22795;DHT22;11564;50.920;11.612;2022-11-15T06:24:51;6.10;99.90
22795;DHT22;11564;50.920;11.612;2022-11-15T06:27:16;5.90;99.90
22795;DHT22;11564;50.920;11.612;2022-11-15T06:29:42;6.00;99.90
22795;DHT22;11564;50.920;11.612;2022-11-15T06:32:07;6.10;99.90
22795;DHT22;11564;50.920;11.612;2022-11-15T06:34:33;6.00;99.90
22795;DHT22;11564;50.920;11.612;2022-11-15T06:37:01;6.10;99.90
22795;DHT22;11564;50.920;11.612;2022-11-15T06:39:26;6.10;99.90
22795;DHT22;11564;50.920;11.612;2022-11-15T06:41:52;6.10;99.90
22795;DHT22;11564;50.920;11.612;2022-11-15T06:44:17;6.10;99.90
22795;DHT22;11564;50.920;11.612;2022-11-15T06:46:43;6.10;99.90
22795;DHT22;11564;50.920;11.612;2022-11-15T06:49:09;6.00;99.90
22795;DHT22;11564;50.920;11.612;2022-11-15T06:51:35;5.90;99.90
22795;DHT22;11564;50.920;11.612;2022-11-15T06:54:01;6.00;99.90
22795;DHT22;11564;50.920;11.612;2022-11-15T06:56:26;5.90;99.90
22795;DHT22;11564;50.920;11.612;2022-11-15T06:58:52;6.00;99.90
22795;DHT22;11564;50.920;11.612;2022-11-15T07:01:18;5.80;99.90
22795;DHT22;11564;50.920;11.612;2022-11-15T07:03:43;5.70;99.90
22795;DHT22;11564;50.920;11.612;2022-11-15T07:06:10;5.50;99.90
22795;DHT22;11564;50.920;11.612;2022-11-15T07:08:36;5.40;99.90
22795;DHT22;11564;50.920;11.612;2022-11-15T07:11:04;5.10;99.90
22795;DHT22;11564;50.920;11.612;2022-11-15T07:13:31;4.50;99.90
22795;DHT22;11564;50.920;11.612;2022-11-15T07:16:06;4.30;99.90
22795;DHT22;11564;50.920;11.612;2022-11-15T07:18:34;4.20;99.90
22795;DHT22;11564;50.920;11.612;2022-11-15T07:21:04;4.20;99.90
22795;DHT22;11564;50.920;11.612;2022-11-15T07:23:30;4.30;99.90
22795;DHT22;11564;50.920;11.612;2022-11-15T07:25:57;4.30;99.90
22795;DHT22;11564;50.920;11.612;2022-11-15T07:28:24;4.30;99.90
22795;DHT22;11564;50.920;11.612;2022-11-15T07:30:49;4.30;99.90
22795;DHT22;11564;50.920;11.612;2022-11-15T07:33:15;4.20;99.90
22795;DHT22;11564;50.920;11.612;2022-11-15T07:35:41;4.20;99.90
22795;DHT22;11564;50.920;11.612;2022-11-15T07:38:08;4.30;99.90
22795;DHT22;11564;50.920;11.612;2022-11-15T07:40:33;4.30;99.90
22795;DHT22;11564;50.920;11.612;2022-11-15T07:43:01;4.30;99.90
22795;DHT22;11564;50.920;11.612;2022-11-15T07:45:26;4.30;99.90
22795;DHT22;11564;50.920;11.612;2022-11-15T07:47:53;4.40;99.90
22795;DHT22;11564;50.920;11.612;2022-11-15T07:50:19;4.40;99.90
22795;DHT22;11564;50.920;11.612;2022-11-15T07:52:45;4.40;99.90
22795;DHT22;11564;50.920;11.612;2022-11-15T07:55:11;4.20;99.90
22795;DHT22;11564;50.920;11.612;2022-11-15T07:57:37;4.30;99.90
22795;DHT22;11564;50.920;11.612;2022-11-15T08:00:04;4.20;99.90
22795;DHT22;11564;50.920;11.612;2022-11-15T08:02:30;4.30;99.90
22795;DHT22;11564;50.920;11.612;2022-11-15T08:04:56;4.30;99.90
22795;DHT22;11564;50.920;11.612;2022-11-15T08:07:23;4.30;99.90
22795;DHT22;11564;50.920;11.612;2022-11-15T08:09:48;4.30;99.90
22795;DHT22;11564;50.920;11.612;2022-11-15T08:12:14;4.40;99.90
22795;DHT22;11564;50.920;11.612;2022-11-15T08:14:40;4.40;99.90
22795;DHT22;11564;50.920;11.612;2022-11-15T08:17:06;4.40;99.90
22795;DHT22;11564;50.920;11.612;2022-11-15T08:19:31;4.50;99.90
22795;DHT22;11564;50.920;11.612;2022-11-15T08:21:58;4.60;99.90
22795;DHT22;11564;50.920;11.612;2022-11-15T08:24:23;4.60;99.90
22795;DHT22;11564;50.920;11.612;2022-11-15T08:26:49;4.70;99.90
22795;DHT22;11564;50.920;11.612;2022-11-15T08:29:14;4.80;99.90
22795;DHT22;11564;50.920;11.612;2022-11-15T08:31:40;5.00;99.90
22795;DHT22;11564;50.920;11.612;2022-11-15T08:34:06;5.20;99.90
22795;DHT22;11564;50.920;11.612;2022-11-15T08:36:32;5.50;99.90
22795;DHT22;11564;50.920;11.612;2022-11-15T08:38:58;5.80;99.90
22795;DHT22;11564;50.920;11.612;2022-11-15T08:41:35;6.00;99.90
22795;DHT22;11564;50.920;11.612;2022-11-15T08:44:02;6.40;99.90
22795;DHT22;11564;50.920;11.612;2022-11-15T08:46:27;6.60;99.90
22795;DHT22;11564;50.920;11.612;2022-11-15T08:48:53;6.70;99.90
22795;DHT22;11564;50.920;11.612;2022-11-15T08:51:19;7.00;99.90
22795;DHT22;11564;50.920;11.612;2022-11-15T08:53:45;7.10;99.90
22795;DHT22;11564;50.920;11.612;2022-11-15T08:56:12;7.40;99.90
22795;DHT22;11564;50.920;11.612;2022-11-15T08:58:38;7.70;99.90
22795;DHT22;11564;50.920;11.612;2022-11-15T09:01:04;7.90;99.90
22795;DHT22;11564;50.920;11.612;2022-11-15T09:03:30;8.10;99.90
22795;DHT22;11564;50.920;11.612;2022-11-15T09:06:00;8.30;99.90
22795;DHT22;11564;50.920;11.612;2022-11-15T09:08:30;8.50;99.90
22795;DHT22;11564;50.920;11.612;2022-11-15T09:10:55;8.70;99.90
22795;DHT22;11564;50.920;11.612;2022-11-15T09:13:21;8.80;99.90
22795;DHT22;11564;50.920;11.612;2022-11-15T09:15:47;9.10;99.90
22795;DHT22;11564;50.920;11.612;2022-11-15T09:18:13;9.40;99.90
22795;DHT22;11564;50.920;11.612;2022-11-15T09:20:39;9.70;99.90
22795;DHT22;11564;50.920;11.612;2022-11-15T09:23:05;9.90;99.90
22795;DHT22;11564;50.920;11.612;2022-11-15T09:25:31;10.10;99.90
22795;DHT22;11564;50.920;11.612;2022-11-15T09:27:57;10.30;99.90
22795;DHT22;11564;50.920;11.612;2022-11-15T09:30:23;10.50;99.90
22795;DHT22;11564;50.920;11.612;2022-11-15T09:32:49;10.60;99.90
22795;DHT22;11564;50.920;11.612;2022-11-15T09:35:15;10.80;99.90
22795;DHT22;11564;50.920;11.612;2022-11-15T09:37:40;11.00;99.90
22795;DHT22;11564;50.920;11.612;2022-11-15T09:40:11;11.00;99.90
22795;DHT22;11564;50.920;11.612;2022-11-15T09:43:14;11.20;99.90
22795;DHT22;11564;50.920;11.612;2022-11-15T09:46:25;11.30;99.90
22795;DHT22;11564;50.920;11.612;2022-11-15T09:48:53;11.50;99.90
22795;DHT22;11564;50.920;11.612;2022-11-15T09:51:35;11.70;99.30
22795;DHT22;11564;50.920;11.612;2022-11-15T09:56:30;12.10;96.90
22795;DHT22;11564;50.920;11.612;2022-11-15T10:04:33;12.60;96.40
22795;DHT22;11564;50.920;11.612;2022-11-15T10:07:02;12.70;95.80
22795;DHT22;11564;50.920;11.612;2022-11-15T10:09:37;12.80;95.80
22795;DHT22;11564;50.920;11.612;2022-11-15T10:12:02;12.80;94.70
22795;DHT22;11564;50.920;11.612;2022-11-15T10:14:29;13.00;92.50
22795;DHT22;11564;50.920;11.612;2022-11-15T10:17:06;13.20;93.00
22795;DHT22;11564;50.920;11.612;2022-11-15T10:22:27;13.60;90.40
22795;DHT22;11564;50.920;11.612;2022-11-15T10:27:29;13.90;89.70
22795;DHT22;11564;50.920;11.612;2022-11-15T10:29:54;14.00;87.50
22795;DHT22;11564;50.920;11.612;2022-11-15T10:32:21;14.20;90.80
22795;DHT22;11564;50.920;11.612;2022-11-15T10:34:48;14.30;85.40
22795;DHT22;11564;50.920;11.612;2022-11-15T10:37:14;14.40;89.00
22795;DHT22;11564;50.920;11.612;2022-11-15T10:40:22;14.60;90.60
22795;DHT22;11564;50.920;11.612;2022-11-15T10:43:03;14.70;90.90
22795;DHT22;11564;50.920;11.612;2022-11-15T10:45:31;14.60;90.90
22795;DHT22;11564;50.920;11.612;2022-11-15T10:50:40;14.60;89.60
22795;DHT22;11564;50.920;11.612;2022-11-15T10:53:38;14.70;90.00
22795;DHT22;11564;50.920;11.612;2022-11-15T10:56:11;14.60;90.60
22795;DHT22;11564;50.920;11.612;2022-11-15T10:58:43;14.60;90.60
22795;DHT22;11564;50.920;11.612;2022-11-15T11:01:19;14.50;90.70
22795;DHT22;11564;50.920;11.612;2022-11-15T11:04:01;14.70;90.30
22795;DHT22;11564;50.920;11.612;2022-11-15T11:06:27;14.80;89.40
22795;DHT22;11564;50.920;11.612;2022-11-15T11:09:02;14.80;89.30
22795;DHT22;11564;50.920;11.612;2022-11-15T11:11:49;14.80;89.60
22795;DHT22;11564;50.920;11.612;2022-11-15T11:14:22;14.70;90.20
22795;DHT22;11564;50.920;11.612;2022-11-15T11:19:56;14.60;89.00
22795;DHT22;11564;50.920;11.612;2022-11-15T11:23:01;14.70;89.80
22795;DHT22;11564;50.920;11.612;2022-11-15T11:28:10;14.50;90.60
22795;DHT22;11564;50.920;11.612;2022-11-15T11:33:24;14.50;90.30
22795;DHT22;11564;50.920;11.612;2022-11-15T11:41:55;14.90;87.30
22795;DHT22;11564;50.920;11.612;2022-11-15T11:47:12;15.50;90.30
22795;DHT22;11564;50.920;11.612;2022-11-15T11:49:51;15.80;89.40
22795;DHT22;11564;50.920;11.612;2022-11-15T11:52:42;16.00;87.00
22795;DHT22;11564;50.920;11.612;2022-11-15T11:55:25;16.40;86.50
22795;DHT22;11564;50.920;11.612;2022-11-15T11:58:22;16.50;87.50
22795;DHT22;11564;50.920;11.612;2022-11-15T12:01:44;16.80;81.70
22795;DHT22;11564;50.920;11.612;2022-11-15T12:03:45;17.20;84.20
22795;DHT22;11564;50.920;11.612;2022-11-15T12:06:29;17.70;83.30
22795;DHT22;11564;50.920;11.612;2022-11-15T12:09:22;18.10;83.10
22795;DHT22;11564;50.920;11.612;2022-11-15T12:16:57;19.60;78.50
22795;DHT22;11564;50.920;11.612;2022-11-15T12:19:24;20.00;77.50
22795;DHT22;11564;50.920;11.612;2022-11-15T12:22:10;20.60;76.10
22795;DHT22;11564;50.920;11.612;2022-11-15T12:29:53;24.30;65.60
22795;DHT22;11564;50.920;11.612;2022-11-15T12:32:29;25.70;59.00
22795;DHT22;11564;50.920;11.612;2022-11-15T12:34:57;26.10;53.90
22795;DHT22;11564;50.920;11.612;2022-11-15T12:42:44;28.50;48.90
22795;DHT22;11564;50.920;11.612;2022-11-15T12:45:41;26.60;50.90
22795;DHT22;11564;50.920;11.612;2022-11-15T12:56:09;19.40;65.40
22795;DHT22;11564;50.920;11.612;2022-11-15T13:06:43;18.50;71.90
22795;DHT22;11564;50.920;11.612;2022-11-15T13:15:30;17.90;74.00
22795;DHT22;11564;50.920;11.612;2022-11-15T13:17:51;18.00;74.40
22795;DHT22;11564;50.920;11.612;2022-11-15T13:20:27;18.00;71.00
22795;DHT22;11564;50.920;11.612;2022-11-15T13:23:12;17.90;73.60
22795;DHT22;11564;50.920;11.612;2022-11-15T13:30:56;18.10;70.20
22795;DHT22;11564;50.920;11.612;2022-11-15T13:35:57;18.00;69.40
22795;DHT22;11564;50.920;11.612;2022-11-15T13:38:35;18.60;63.40
22795;DHT22;11564;50.920;11.612;2022-11-15T13:43:43;18.90;64.10
22795;DHT22;11564;50.920;11.612;2022-11-15T13:46:11;18.40;63.80
22795;DHT22;11564;50.920;11.612;2022-11-15T13:48:37;18.20;64.50
22795;DHT22;11564;50.920;11.612;2022-11-15T13:53:37;17.50;67.60
22795;DHT22;11564;50.920;11.612;2022-11-15T13:56:04;17.50;68.40
22795;DHT22;11564;50.920;11.612;2022-11-15T13:58:30;17.30;69.30
22795;DHT22;11564;50.920;11.612;2022-11-15T14:01:02;17.30;68.80
22795;DHT22;11564;50.920;11.612;2022-11-15T14:03:31;17.10;67.60
22795;DHT22;11564;50.920;11.612;2022-11-15T14:06:06;17.00;67.70
22795;DHT22;11564;50.920;11.612;2022-11-15T14:08:33;16.90;67.70
22795;DHT22;11564;50.920;11.612;2022-11-15T14:11:19;16.80;67.90
22795;DHT22;11564;50.920;11.612;2022-11-15T14:22:13;17.00;75.20
22795;DHT22;11564;50.920;11.612;2022-11-15T14:24:40;17.00;73.20
22795;DHT22;11564;50.920;11.612;2022-11-15T14:27:36;16.90;77.20
22795;DHT22;11564;50.920;11.612;2022-11-15T14:30:02;16.70;76.80
22795;DHT22;11564;50.920;11.612;2022-11-15T14:32:30;16.30;78.90
22795;DHT22;11564;50.920;11.612;2022-11-15T14:35:03;15.90;80.10
22795;DHT22;11564;50.920;11.612;2022-11-15T14:37:33;15.60;80.80
22795;DHT22;11564;50.920;11.612;2022-11-15T14:40:04;15.20;82.70
22795;DHT22;11564;50.920;11.612;2022-11-15T14:42:30;14.80;82.80
22795;DHT22;11564;50.920;11.612;2022-11-15T14:44:56;14.30;84.70
22795;DHT22;11564;50.920;11.612;2022-11-15T14:47:42;13.90;84.30
22795;DHT22;11564;50.920;11.612;2022-11-15T14:50:15;13.60;85.20
22795;DHT22;11564;50.920;11.612;2022-11-15T14:52:42;13.30;84.90
22795;DHT22;11564;50.920;11.612;2022-11-15T14:55:19;13.10;84.40
22795;DHT22;11564;50.920;11.612;2022-11-15T14:57:45;12.90;85.20
22795;DHT22;11564;50.920;11.612;2022-11-15T15:00:12;12.70;85.60
22795;DHT22;11564;50.920;11.612;2022-11-15T15:02:39;12.50;86.30
22795;DHT22;11564;50.920;11.612;2022-11-15T15:07:49;12.00;87.90
22795;DHT22;11564;50.920;11.612;2022-11-15T15:10:17;11.90;88.20
22795;DHT22;11564;50.920;11.612;2022-11-15T15:12:43;11.60;88.10
22795;DHT22;11564;50.920;11.612;2022-11-15T15:15:14;11.40;88.90
22795;DHT22;11564;50.920;11.612;2022-11-15T15:17:40;11.20;89.20
22795;DHT22;11564;50.920;11.612;2022-11-15T15:20:06;11.00;90.10
22795;DHT22;11564;50.920;11.612;2022-11-15T15:22:32;10.90;90.20
22795;DHT22;11564;50.920;11.612;2022-11-15T15:24:57;10.70;90.40
22795;DHT22;11564;50.920;11.612;2022-11-15T15:27:23;10.60;90.80
22795;DHT22;11564;50.920;11.612;2022-11-15T15:29:49;10.50;91.00
22795;DHT22;11564;50.920;11.612;2022-11-15T15:32:14;10.40;91.00
22795;DHT22;11564;50.920;11.612;2022-11-15T15:34:40;10.40;91.20
22795;DHT22;11564;50.920;11.612;2022-11-15T15:39:32;10.20;91.70
22795;DHT22;11564;50.920;11.612;2022-11-15T15:41:58;10.20;92.00
22795;DHT22;11564;50.920;11.612;2022-11-15T15:44:23;10.10;92.20
22795;DHT22;11564;50.920;11.612;2022-11-15T15:46:49;10.00;92.30
22795;DHT22;11564;50.920;11.612;2022-11-15T15:49:14;10.00;92.70
22795;DHT22;11564;50.920;11.612;2022-11-15T15:51:40;10.00;92.80
22795;DHT22;11564;50.920;11.612;2022-11-15T15:54:06;10.00;93.00
22795;DHT22;11564;50.920;11.612;2022-11-15T15:56:31;10.00;93.10
22795;DHT22;11564;50.920;11.612;2022-11-15T15:58:57;10.00;93.20
22795;DHT22;11564;50.920;11.612;2022-11-15T16:01:22;10.00;93.50
22795;DHT22;11564;50.920;11.612;2022-11-15T16:03:48;10.00;93.50
22795;DHT22;11564;50.920;11.612;2022-11-15T16:06:35;10.00;93.60
22795;DHT22;11564;50.920;11.612;2022-11-15T16:09:02;10.00;93.80
22795;DHT22;11564;50.920;11.612;2022-11-15T16:11:27;9.90;94.50
22795;DHT22;11564;50.920;11.612;2022-11-15T16:13:53;9.90;94.80
22795;DHT22;11564;50.920;11.612;2022-11-15T16:16:19;9.90;94.80
22795;DHT22;11564;50.920;11.612;2022-11-15T16:18:45;9.90;94.90
22795;DHT22;11564;50.920;11.612;2022-11-15T16:21:11;9.90;95.10
22795;DHT22;11564;50.920;11.612;2022-11-15T16:23:37;9.90;95.50
22795;DHT22;11564;50.920;11.612;2022-11-15T16:26:20;9.90;95.40
22795;DHT22;11564;50.920;11.612;2022-11-15T16:28:46;9.90;95.60
22795;DHT22;11564;50.920;11.612;2022-11-15T16:31:12;9.80;95.80
22795;DHT22;11564;50.920;11.612;2022-11-15T16:33:39;9.80;95.90
22795;DHT22;11564;50.920;11.612;2022-11-15T16:36:12;9.80;96.00
22795;DHT22;11564;50.920;11.612;2022-11-15T16:38:39;9.80;96.30
22795;DHT22;11564;50.920;11.612;2022-11-15T16:41:05;9.80;96.40
22795;DHT22;11564;50.920;11.612;2022-11-15T16:43:31;9.70;96.50
22795;DHT22;11564;50.920;11.612;2022-11-15T16:45:56;9.70;96.70
22795;DHT22;11564;50.920;11.612;2022-11-15T16:48:24;9.70;96.80
22795;DHT22;11564;50.920;11.612;2022-11-15T16:50:54;9.60;97.00
22795;DHT22;11564;50.920;11.612;2022-11-15T16:53:20;9.50;97.20
22795;DHT22;11564;50.920;11.612;2022-11-15T16:55:46;9.40;97.40
22795;DHT22;11564;50.920;11.612;2022-11-15T16:58:11;9.40;97.60
22795;DHT22;11564;50.920;11.612;2022-11-15T17:00:37;9.40;97.60
22795;DHT22;11564;50.920;11.612;2022-11-15T17:03:03;9.40;97.80
22795;DHT22;11564;50.920;11.612;2022-11-15T17:05:29;9.40;97.80
22795;DHT22;11564;50.920;11.612;2022-11-15T17:07:54;9.40;98.00
22795;DHT22;11564;50.920;11.612;2022-11-15T17:10:21;9.40;98.10
22795;DHT22;11564;50.920;11.612;2022-11-15T17:12:48;9.30;98.10
22795;DHT22;11564;50.920;11.612;2022-11-15T17:15:14;9.30;98.20
22795;DHT22;11564;50.920;11.612;2022-11-15T17:17:41;9.30;98.60
22795;DHT22;11564;50.920;11.612;2022-11-15T17:20:13;9.30;98.30
22795;DHT22;11564;50.920;11.612;2022-11-15T17:22:39;9.30;98.50
22795;DHT22;11564;50.920;11.612;2022-11-15T17:25:05;9.30;98.70
22795;DHT22;11564;50.920;11.612;2022-11-15T17:27:31;9.30;98.40
22795;DHT22;11564;50.920;11.612;2022-11-15T17:29:56;9.30;98.90
22795;DHT22;11564;50.920;11.612;2022-11-15T17:32:22;9.30;98.80
22795;DHT22;11564;50.920;11.612;2022-11-15T17:34:48;9.30;98.90
22795;DHT22;11564;50.920;11.612;2022-11-15T17:37:13;9.30;99.00
22795;DHT22;11564;50.920;11.612;2022-11-15T17:39:39;9.30;99.00
22795;DHT22;11564;50.920;11.612;2022-11-15T17:42:04;9.30;99.00
22795;DHT22;11564;50.920;11.612;2022-11-15T17:44:31;9.30;99.20
22795;DHT22;11564;50.920;11.612;2022-11-15T17:46:57;9.30;99.10